sensor_id;sensor_type;location;lat;lon;timestamp;P1;durP1;ratioP1;P2;durP2;ratioP2
1376;SDS011;682;52.502;13.488;2023-12-20T00:00:34;9.48;;;6.30;;
1376;SDS011;682;52.502;13.488;2023-12-20T00:03:04;7.10;;;6.50;;
1376;SDS011;682;52.502;13.488;2023-12-20T00:05:31;6.73;;;6.13;;
1376;SDS011;682;52.502;13.488;2023-12-20T00:07:58;6.70;;;6.10;;
1376;SDS011;682;52.502;13.488;2023-12-20T00:10:25;7.33;;;6.67;;
1376;SDS011;682;52.502;13.488;2023-12-20T00:12:52;6.87;;;6.20;;
1376;SDS011;682;52.502;13.488;2023-12-20T00:15:19;7.60;;;6.90;;
1376;SDS011;682;52.502;13.488;2023-12-20T00:17:47;6.90;;;6.20;;
1376;SDS011;682;52.502;13.488;2023-12-20T00:20:17;7.10;;;6.50;;
1376;SDS011;682;52.502;13.488;2023-12-20T00:22:44;7.40;;;6.70;;
1376;SDS011;682;52.502;13.488;2023-12-20T00:25:11;7.50;;;6.80;;
1376;SDS011;682;52.502;13.488;2023-12-20T00:27:38;7.50;;;6.80;;
1376;SDS011;682;52.502;13.488;2023-12-20T00:30:06;8.10;;;7.37;;
1376;SDS011;682;52.502;13.488;2023-12-20T00:32:34;6.57;;;5.97;;
1376;SDS011;682;52.502;13.488;2023-12-20T00:35:01;6.40;;;5.80;;
1376;SDS011;682;52.502;13.488;2023-12-20T00:37:30;6.68;;;5.90;;
1376;SDS011;682;52.502;13.488;2023-12-20T00:39:57;7.13;;;6.43;;
1376;SDS011;682;52.502;13.488;2023-12-20T00:42:24;6.37;;;5.73;;
1376;SDS011;682;52.502;13.488;2023-12-20T00:44:52;6.50;;;5.90;;
1376;SDS011;682;52.502;13.488;2023-12-20T00:47:19;6.90;;;6.33;;
1376;SDS011;682;52.502;13.488;2023-12-20T00:49:47;6.80;;;6.10;;
1376;SDS011;682;52.502;13.488;2023-12-20T00:52:14;6.63;;;6.00;;
1376;SDS011;682;52.502;13.488;2023-12-20T00:54:43;6.77;;;6.00;;
1376;SDS011;682;52.502;13.488;2023-12-20T00:57:10;5.87;;;5.37;;
1376;SDS011;682;52.502;13.488;2023-12-20T00:59:37;6.07;;;5.47;;
1376;SDS011;682;52.502;13.488;2023-12-20T01:02:04;5.97;;;5.37;;
1376;SDS011;682;52.502;13.488;2023-12-20T01:04:31;5.90;;;5.40;;
1376;SDS011;682;52.502;13.488;2023-12-20T01:06:58;6.97;;;5.85;;
1376;SDS011;682;52.502;13.488;2023-12-20T01:09:25;5.57;;;5.10;;
1376;SDS011;682;52.502;13.488;2023-12-20T01:11:54;6.63;;;6.03;;
1376;SDS011;682;52.502;13.488;2023-12-20T01:14:21;5.70;;;5.20;;
1376;SDS011;682;52.502;13.488;2023-12-20T01:16:48;6.43;;;5.70;;
1376;SDS011;682;52.502;13.488;2023-12-20T01:19:17;5.63;;;5.13;;
1376;SDS011;682;52.502;13.488;2023-12-20T01:21:44;5.67;;;5.17;;
1376;SDS011;682;52.502;13.488;2023-12-20T01:24:11;6.70;;;5.80;;
1376;SDS011;682;52.502;13.488;2023-12-20T01:26:40;6.20;;;5.67;;
1376;SDS011;682;52.502;13.488;2023-12-20T01:29:09;6.90;;;6.30;;
1376;SDS011;682;52.502;13.488;2023-12-20T01:31:36;6.10;;;5.50;;
1376;SDS011;682;52.502;13.488;2023-12-20T01:34:03;6.50;;;5.97;;
1376;SDS011;682;52.502;13.488;2023-12-20T01:36:30;6.95;;;6.25;;
1376;SDS011;682;52.502;13.488;2023-12-20T01:38:57;6.03;;;5.53;;
1376;SDS011;682;52.502;13.488;2023-12-20T01:41:24;6.30;;;5.80;;
1376;SDS011;682;52.502;13.488;2023-12-20T01:43:52;6.20;;;5.60;;
1376;SDS011;682;52.502;13.488;2023-12-20T01:46:20;6.22;;;5.65;;
1376;SDS011;682;52.502;13.488;2023-12-20T01:48:47;6.37;;;5.70;;
1376;SDS011;682;52.502;13.488;2023-12-20T01:51:15;6.00;;;5.40;;
1376;SDS011;682;52.502;13.488;2023-12-20T01:53:42;5.40;;;4.90;;
1376;SDS011;682;52.502;13.488;2023-12-20T01:56:10;5.93;;;5.33;;
1376;SDS011;682;52.502;13.488;2023-12-20T01:58:37;5.50;;;5.00;;
1376;SDS011;682;52.502;13.488;2023-12-20T02:06:19;6.17;;;5.57;;
1376;SDS011;682;52.502;13.488;2023-12-20T02:08:48;6.07;;;5.57;;
1376;SDS011;682;52.502;13.488;2023-12-20T02:11:29;5.27;;;4.77;;
1376;SDS011;682;52.502;13.488;2023-12-20T02:13:56;5.30;;;4.80;;
1376;SDS011;682;52.502;13.488;2023-12-20T02:16:23;6.10;;;5.20;;
1376;SDS011;682;52.502;13.488;2023-12-20T02:19:00;5.00;;;4.50;;
1376;SDS011;682;52.502;13.488;2023-12-20T02:21:46;4.43;;;4.03;;
1376;SDS011;682;52.502;13.488;2023-12-20T02:24:17;2.87;;;2.47;;
1376;SDS011;682;52.502;13.488;2023-12-20T02:26:44;2.50;;;2.15;;
1376;SDS011;682;52.502;13.488;2023-12-20T02:29:11;2.90;;;2.30;;
1376;SDS011;682;52.502;13.488;2023-12-20T02:31:43;2.20;;;1.92;;
1376;SDS011;682;52.502;13.488;2023-12-20T02:34:16;2.53;;;2.33;;
1376;SDS011;682;52.502;13.488;2023-12-20T02:36:43;3.05;;;2.47;;
1376;SDS011;682;52.502;13.488;2023-12-20T02:39:26;2.90;;;2.10;;
1376;SDS011;682;52.502;13.488;2023-12-20T02:41:56;3.40;;;2.87;;
1376;SDS011;682;52.502;13.488;2023-12-20T02:44:23;4.20;;;3.80;;
1376;SDS011;682;52.502;13.488;2023-12-20T02:46:50;3.47;;;3.17;;
1376;SDS011;682;52.502;13.488;2023-12-20T02:49:17;3.97;;;3.67;;
1376;SDS011;682;52.502;13.488;2023-12-20T02:51:44;4.50;;;4.10;;
1376;SDS011;682;52.502;13.488;2023-12-20T02:54:13;5.00;;;4.23;;
1376;SDS011;682;52.502;13.488;2023-12-20T02:56:43;4.43;;;3.97;;
1376;SDS011;682;52.502;13.488;2023-12-20T02:59:12;4.90;;;4.40;;
1376;SDS011;682;52.502;13.488;2023-12-20T03:01:43;4.50;;;4.10;;
1376;SDS011;682;52.502;13.488;2023-12-20T03:04:14;4.30;;;3.90;;
1376;SDS011;682;52.502;13.488;2023-12-20T03:06:43;6.73;;;3.90;;
1376;SDS011;682;52.502;13.488;2023-12-20T03:09:15;5.70;;;4.30;;
1376;SDS011;682;52.502;13.488;2023-12-20T03:11:43;5.47;;;4.57;;
1376;SDS011;682;52.502;13.488;2023-12-20T03:14:18;6.83;;;4.50;;
1376;SDS011;682;52.502;13.488;2023-12-20T03:16:47;5.83;;;4.20;;
1376;SDS011;682;52.502;13.488;2023-12-20T03:19:21;5.20;;;4.63;;
1376;SDS011;682;52.502;13.488;2023-12-20T03:21:49;7.30;;;5.03;;
1376;SDS011;682;52.502;13.488;2023-12-20T03:24:43;7.57;;;4.80;;
1376;SDS011;682;52.502;13.488;2023-12-20T03:27:13;7.60;;;4.63;;
1376;SDS011;682;52.502;13.488;2023-12-20T03:29:43;4.37;;;3.97;;
1376;SDS011;682;52.502;13.488;2023-12-20T03:32:10;5.10;;;4.20;;
1376;SDS011;682;52.502;13.488;2023-12-20T03:34:38;6.43;;;3.50;;
1376;SDS011;682;52.502;13.488;2023-12-20T03:37:05;10.25;;;5.00;;
1376;SDS011;682;52.502;13.488;2023-12-20T03:39:44;5.20;;;3.63;;
1376;SDS011;682;52.502;13.488;2023-12-20T03:42:17;5.63;;;3.65;;
1376;SDS011;682;52.502;13.488;2023-12-20T03:44:51;5.50;;;3.27;;
1376;SDS011;682;52.502;13.488;2023-12-20T03:47:18;4.80;;;3.10;;
1376;SDS011;682;52.502;13.488;2023-12-20T03:49:45;5.40;;;3.40;;
1376;SDS011;682;52.502;13.488;2023-12-20T03:52:12;10.27;;;3.38;;
1376;SDS011;682;52.502;13.488;2023-12-20T03:54:39;4.17;;;3.43;;
1376;SDS011;682;52.502;13.488;2023-12-20T03:57:27;7.70;;;3.80;;
1376;SDS011;682;52.502;13.488;2023-12-20T03:59:58;6.80;;;2.95;;
1376;SDS011;682;52.502;13.488;2023-12-20T04:02:27;4.47;;;3.07;;
1376;SDS011;682;52.502;13.488;2023-12-20T04:04:56;7.67;;;2.93;;
1376;SDS011;682;52.502;13.488;2023-12-20T04:07:26;7.45;;;2.67;;
1376;SDS011;682;52.502;13.488;2023-12-20T04:13:27;4.57;;;2.53;;
1376;SDS011;682;52.502;13.488;2023-12-20T04:15:55;6.10;;;3.10;;
1376;SDS011;682;52.502;13.488;2023-12-20T04:18:34;9.00;;;3.15;;
1376;SDS011;682;52.502;13.488;2023-12-20T04:21:01;7.88;;;3.03;;
1376;SDS011;682;52.502;13.488;2023-12-20T04:23:29;7.00;;;4.43;;
1376;SDS011;682;52.502;13.488;2023-12-20T04:26:00;6.13;;;2.70;;
1376;SDS011;682;52.502;13.488;2023-12-20T04:28:27;4.13;;;2.23;;
1376;SDS011;682;52.502;13.488;2023-12-20T04:30:56;5.73;;;2.53;;
1376;SDS011;682;52.502;13.488;2023-12-20T04:33:26;4.40;;;2.87;;
1376;SDS011;682;52.502;13.488;2023-12-20T04:35:53;7.03;;;2.93;;
1376;SDS011;682;52.502;13.488;2023-12-20T04:38:21;5.37;;;2.33;;
1376;SDS011;682;52.502;13.488;2023-12-20T04:40:48;8.93;;;2.85;;
1376;SDS011;682;52.502;13.488;2023-12-20T04:43:16;10.23;;;2.90;;
1376;SDS011;682;52.502;13.488;2023-12-20T04:45:49;4.50;;;2.38;;
1376;SDS011;682;52.502;13.488;2023-12-20T04:48:16;11.07;;;3.08;;
1376;SDS011;682;52.502;13.488;2023-12-20T04:50:43;4.82;;;2.47;;
1376;SDS011;682;52.502;13.488;2023-12-20T04:53:12;10.60;;;2.97;;
1376;SDS011;682;52.502;13.488;2023-12-20T04:55:41;9.70;;;2.92;;
1376;SDS011;682;52.502;13.488;2023-12-20T04:58:08;6.43;;;2.92;;
1376;SDS011;682;52.502;13.488;2023-12-20T05:17:41;8.67;;;3.10;;
1376;SDS011;682;52.502;13.488;2023-12-20T05:20:08;8.40;;;3.10;;
1376;SDS011;682;52.502;13.488;2023-12-20T05:22:35;7.82;;;2.88;;
1376;SDS011;682;52.502;13.488;2023-12-20T05:25:02;4.55;;;2.53;;
1376;SDS011;682;52.502;13.488;2023-12-20T05:27:30;7.50;;;4.75;;
1376;SDS011;682;52.502;13.488;2023-12-20T05:29:57;8.70;;;3.10;;
1376;SDS011;682;52.502;13.488;2023-12-20T05:32:24;7.05;;;3.05;;
1376;SDS011;682;52.502;13.488;2023-12-20T05:34:52;8.75;;;3.30;;
1376;SDS011;682;52.502;13.488;2023-12-20T05:37:19;11.23;;;3.08;;
1376;SDS011;682;52.502;13.488;2023-12-20T05:39:46;9.02;;;3.15;;
1376;SDS011;682;52.502;13.488;2023-12-20T05:42:13;5.68;;;3.88;;
1376;SDS011;682;52.502;13.488;2023-12-20T05:44:40;5.60;;;3.03;;
1376;SDS011;682;52.502;13.488;2023-12-20T05:47:07;6.03;;;2.50;;
1376;SDS011;682;52.502;13.488;2023-12-20T05:49:34;8.63;;;3.00;;
1376;SDS011;682;52.502;13.488;2023-12-20T05:52:03;6.40;;;3.00;;
1376;SDS011;682;52.502;13.488;2023-12-20T05:54:30;9.55;;;3.60;;
1376;SDS011;682;52.502;13.488;2023-12-20T05:56:57;9.10;;;2.78;;
1376;SDS011;682;52.502;13.488;2023-12-20T05:59:24;5.07;;;2.65;;
1376;SDS011;682;52.502;13.488;2023-12-20T06:01:51;6.97;;;3.00;;
1376;SDS011;682;52.502;13.488;2023-12-20T06:04:19;7.68;;;2.78;;
1376;SDS011;682;52.502;13.488;2023-12-20T06:06:46;8.68;;;3.58;;
1376;SDS011;682;52.502;13.488;2023-12-20T06:09:15;7.38;;;3.00;;
1376;SDS011;682;52.502;13.488;2023-12-20T06:11:42;11.68;;;4.55;;
1376;SDS011;682;52.502;13.488;2023-12-20T06:14:09;10.73;;;3.00;;
1376;SDS011;682;52.502;13.488;2023-12-20T06:16:36;7.82;;;3.20;;
1376;SDS011;682;52.502;13.488;2023-12-20T06:19:03;7.68;;;3.05;;
1376;SDS011;682;52.502;13.488;2023-12-20T06:21:30;8.10;;;2.72;;
1376;SDS011;682;52.502;13.488;2023-12-20T06:23:58;7.18;;;3.20;;
1376;SDS011;682;52.502;13.488;2023-12-20T06:26:29;7.20;;;3.00;;
1376;SDS011;682;52.502;13.488;2023-12-20T06:28:56;5.80;;;3.35;;
1376;SDS011;682;52.502;13.488;2023-12-20T06:31:23;5.20;;;3.20;;
1376;SDS011;682;52.502;13.488;2023-12-20T06:33:50;8.65;;;3.22;;
1376;SDS011;682;52.502;13.488;2023-12-20T06:36:22;5.95;;;2.47;;
1376;SDS011;682;52.502;13.488;2023-12-20T06:38:49;7.85;;;2.53;;
1376;SDS011;682;52.502;13.488;2023-12-20T06:41:16;5.93;;;2.70;;
1376;SDS011;682;52.502;13.488;2023-12-20T06:43:45;5.50;;;2.85;;
1376;SDS011;682;52.502;13.488;2023-12-20T06:46:12;8.35;;;3.83;;
1376;SDS011;682;52.502;13.488;2023-12-20T06:48:39;5.60;;;2.45;;
1376;SDS011;682;52.502;13.488;2023-12-20T06:51:06;4.65;;;2.33;;
1376;SDS011;682;52.502;13.488;2023-12-20T06:53:41;6.88;;;2.50;;
1376;SDS011;682;52.502;13.488;2023-12-20T06:56:08;6.78;;;3.28;;
1376;SDS011;682;52.502;13.488;2023-12-20T06:58:36;8.32;;;2.90;;
1376;SDS011;682;52.502;13.488;2023-12-20T07:01:05;8.77;;;3.40;;
1376;SDS011;682;52.502;13.488;2023-12-20T07:03:37;5.82;;;2.88;;
1376;SDS011;682;52.502;13.488;2023-12-20T07:06:04;6.45;;;2.97;;
1376;SDS011;682;52.502;13.488;2023-12-20T07:08:32;8.85;;;3.08;;
1376;SDS011;682;52.502;13.488;2023-12-20T07:10:59;6.78;;;3.03;;
1376;SDS011;682;52.502;13.488;2023-12-20T07:13:26;7.97;;;3.50;;
1376;SDS011;682;52.502;13.488;2023-12-20T07:15:53;6.50;;;2.92;;
1376;SDS011;682;52.502;13.488;2023-12-20T07:18:21;6.45;;;2.95;;
1376;SDS011;682;52.502;13.488;2023-12-20T07:20:48;8.63;;;3.20;;
1376;SDS011;682;52.502;13.488;2023-12-20T07:23:15;12.73;;;4.40;;
1376;SDS011;682;52.502;13.488;2023-12-20T07:25:42;8.10;;;3.22;;
1376;SDS011;682;52.502;13.488;2023-12-20T07:28:09;5.47;;;3.20;;
1376;SDS011;682;52.502;13.488;2023-12-20T07:30:37;6.80;;;3.10;;
1376;SDS011;682;52.502;13.488;2023-12-20T07:33:04;3.90;;;3.30;;
1376;SDS011;682;52.502;13.488;2023-12-20T07:35:35;6.00;;;3.57;;
1376;SDS011;682;52.502;13.488;2023-12-20T07:38:02;5.88;;;3.08;;
1376;SDS011;682;52.502;13.488;2023-12-20T07:40:31;10.77;;;3.83;;
1376;SDS011;682;52.502;13.488;2023-12-20T07:42:59;11.18;;;4.15;;
1376;SDS011;682;52.502;13.488;2023-12-20T07:45:26;6.60;;;3.50;;
1376;SDS011;682;52.502;13.488;2023-12-20T07:47:53;4.28;;;2.50;;
1376;SDS011;682;52.502;13.488;2023-12-20T07:50:20;6.25;;;3.00;;
1376;SDS011;682;52.502;13.488;2023-12-20T07:52:48;10.38;;;3.60;;
1376;SDS011;682;52.502;13.488;2023-12-20T07:55:15;5.90;;;2.70;;
1376;SDS011;682;52.502;13.488;2023-12-20T07:57:42;5.10;;;2.95;;
1376;SDS011;682;52.502;13.488;2023-12-20T08:00:10;8.80;;;3.67;;
1376;SDS011;682;52.502;13.488;2023-12-20T08:02:38;9.02;;;3.22;;
1376;SDS011;682;52.502;13.488;2023-12-20T08:05:05;6.10;;;2.53;;
1376;SDS011;682;52.502;13.488;2023-12-20T08:07:34;9.13;;;2.90;;
1376;SDS011;682;52.502;13.488;2023-12-20T08:10:03;4.85;;;2.55;;
1376;SDS011;682;52.502;13.488;2023-12-20T08:12:30;4.78;;;2.90;;
1376;SDS011;682;52.502;13.488;2023-12-20T08:15:01;7.40;;;3.25;;
1376;SDS011;682;52.502;13.488;2023-12-20T08:17:29;10.75;;;4.28;;
1376;SDS011;682;52.502;13.488;2023-12-20T08:19:56;9.25;;;3.95;;
1376;SDS011;682;52.502;13.488;2023-12-20T08:22:23;5.85;;;3.10;;
1376;SDS011;682;52.502;13.488;2023-12-20T08:24:50;7.65;;;3.00;;
1376;SDS011;682;52.502;13.488;2023-12-20T08:27:19;9.95;;;4.40;;
1376;SDS011;682;52.502;13.488;2023-12-20T08:29:46;4.68;;;2.78;;
1376;SDS011;682;52.502;13.488;2023-12-20T08:32:14;9.57;;;2.72;;
1376;SDS011;682;52.502;13.488;2023-12-20T08:34:41;5.78;;;2.85;;
1376;SDS011;682;52.502;13.488;2023-12-20T08:37:11;8.40;;;2.65;;
1376;SDS011;682;52.502;13.488;2023-12-20T08:39:38;5.05;;;2.42;;
1376;SDS011;682;52.502;13.488;2023-12-20T08:42:05;4.40;;;2.30;;
1376;SDS011;682;52.502;13.488;2023-12-20T08:44:33;6.95;;;3.42;;
1376;SDS011;682;52.502;13.488;2023-12-20T08:47:00;5.40;;;2.97;;
1376;SDS011;682;52.502;13.488;2023-12-20T08:49:28;7.63;;;2.45;;
1376;SDS011;682;52.502;13.488;2023-12-20T08:51:57;10.25;;;2.60;;
1376;SDS011;682;52.502;13.488;2023-12-20T08:54:24;6.88;;;2.63;;
1376;SDS011;682;52.502;13.488;2023-12-20T08:56:51;5.45;;;2.22;;
1376;SDS011;682;52.502;13.488;2023-12-20T08:59:18;13.15;;;3.00;;
1376;SDS011;682;52.502;13.488;2023-12-20T09:01:46;8.23;;;3.22;;
1376;SDS011;682;52.502;13.488;2023-12-20T09:04:19;10.38;;;2.70;;
1376;SDS011;682;52.502;13.488;2023-12-20T09:06:46;5.25;;;3.20;;
1376;SDS011;682;52.502;13.488;2023-12-20T09:09:13;9.00;;;3.22;;
1376;SDS011;682;52.502;13.488;2023-12-20T09:11:40;3.53;;;1.83;;
1376;SDS011;682;52.502;13.488;2023-12-20T09:14:07;5.50;;;2.45;;
1376;SDS011;682;52.502;13.488;2023-12-20T09:16:34;7.03;;;2.83;;
1376;SDS011;682;52.502;13.488;2023-12-20T09:19:02;11.48;;;3.05;;
1376;SDS011;682;52.502;13.488;2023-12-20T09:21:29;9.20;;;2.70;;
1376;SDS011;682;52.502;13.488;2023-12-20T09:23:56;5.43;;;2.45;;
1376;SDS011;682;52.502;13.488;2023-12-20T09:26:23;9.63;;;3.28;;
1376;SDS011;682;52.502;13.488;2023-12-20T09:28:51;9.70;;;3.78;;
1376;SDS011;682;52.502;13.488;2023-12-20T09:31:18;8.18;;;2.08;;
1376;SDS011;682;52.502;13.488;2023-12-20T09:33:45;7.47;;;2.60;;
1376;SDS011;682;52.502;13.488;2023-12-20T09:36:13;7.03;;;3.07;;
1376;SDS011;682;52.502;13.488;2023-12-20T09:38:40;7.32;;;2.78;;
1376;SDS011;682;52.502;13.488;2023-12-20T09:41:07;7.55;;;2.55;;
1376;SDS011;682;52.502;13.488;2023-12-20T09:43:35;5.82;;;3.17;;
1376;SDS011;682;52.502;13.488;2023-12-20T09:46:05;5.97;;;3.40;;
1376;SDS011;682;52.502;13.488;2023-12-20T09:48:33;7.00;;;2.90;;
1376;SDS011;682;52.502;13.488;2023-12-20T09:51:01;4.60;;;2.35;;
1376;SDS011;682;52.502;13.488;2023-12-20T09:53:29;7.80;;;2.73;;
1376;SDS011;682;52.502;13.488;2023-12-20T09:56:00;3.53;;;2.87;;
1376;SDS011;682;52.502;13.488;2023-12-20T09:58:28;10.80;;;2.83;;
1376;SDS011;682;52.502;13.488;2023-12-20T10:00:55;5.00;;;2.60;;
1376;SDS011;682;52.502;13.488;2023-12-20T10:03:23;8.13;;;4.60;;
1376;SDS011;682;52.502;13.488;2023-12-20T10:05:52;6.10;;;2.60;;
1376;SDS011;682;52.502;13.488;2023-12-20T10:08:22;7.32;;;2.47;;
1376;SDS011;682;52.502;13.488;2023-12-20T10:10:52;6.25;;;2.50;;
1376;SDS011;682;52.502;13.488;2023-12-20T10:13:20;5.73;;;2.43;;
1376;SDS011;682;52.502;13.488;2023-12-20T10:15:49;8.30;;;3.47;;
1376;SDS011;682;52.502;13.488;2023-12-20T10:18:16;5.82;;;2.90;;
1376;SDS011;682;52.502;13.488;2023-12-20T10:20:43;5.77;;;3.13;;
1376;SDS011;682;52.502;13.488;2023-12-20T10:23:11;8.60;;;3.13;;
1376;SDS011;682;52.502;13.488;2023-12-20T10:25:40;7.50;;;3.80;;
1376;SDS011;682;52.502;13.488;2023-12-20T10:28:12;9.35;;;2.90;;
1376;SDS011;682;52.502;13.488;2023-12-20T10:30:44;6.63;;;2.83;;
1376;SDS011;682;52.502;13.488;2023-12-20T10:33:11;9.07;;;3.40;;
1376;SDS011;682;52.502;13.488;2023-12-20T10:35:38;6.17;;;3.50;;
1376;SDS011;682;52.502;13.488;2023-12-20T10:38:06;6.82;;;3.70;;
1376;SDS011;682;52.502;13.488;2023-12-20T10:40:34;7.37;;;2.87;;
1376;SDS011;682;52.502;13.488;2023-12-20T10:43:03;3.93;;;2.53;;
1376;SDS011;682;52.502;13.488;2023-12-20T10:45:32;8.20;;;3.50;;
1376;SDS011;682;52.502;13.488;2023-12-20T10:48:00;7.00;;;2.63;;
1376;SDS011;682;52.502;13.488;2023-12-20T10:50:28;8.52;;;2.47;;
1376;SDS011;682;52.502;13.488;2023-12-20T10:52:56;4.60;;;2.70;;
1376;SDS011;682;52.502;13.488;2023-12-20T10:55:23;7.00;;;3.33;;
1376;SDS011;682;52.502;13.488;2023-12-20T10:57:50;10.13;;;3.53;;
1376;SDS011;682;52.502;13.488;2023-12-20T11:00:18;4.70;;;2.70;;
1376;SDS011;682;52.502;13.488;2023-12-20T11:02:49;11.03;;;3.10;;
1376;SDS011;682;52.502;13.488;2023-12-20T11:05:20;7.97;;;3.00;;
1376;SDS011;682;52.502;13.488;2023-12-20T11:07:55;11.23;;;3.73;;
1376;SDS011;682;52.502;13.488;2023-12-20T11:10:29;7.72;;;3.45;;
1376;SDS011;682;52.502;13.488;2023-12-20T11:13:05;8.07;;;3.27;;
1376;SDS011;682;52.502;13.488;2023-12-20T11:15:35;11.07;;;3.50;;
1376;SDS011;682;52.502;13.488;2023-12-20T11:18:04;7.78;;;2.80;;
1376;SDS011;682;52.502;13.488;2023-12-20T11:20:35;8.68;;;3.00;;
1376;SDS011;682;52.502;13.488;2023-12-20T11:23:04;8.90;;;3.80;;
1376;SDS011;682;52.502;13.488;2023-12-20T11:25:35;7.80;;;3.42;;
1376;SDS011;682;52.502;13.488;2023-12-20T11:28:13;6.75;;;2.78;;
1376;SDS011;682;52.502;13.488;2023-12-20T11:30:46;5.95;;;2.97;;
1376;SDS011;682;52.502;13.488;2023-12-20T11:33:15;6.77;;;4.17;;
1376;SDS011;682;52.502;13.488;2023-12-20T11:35:42;9.40;;;4.00;;
1376;SDS011;682;52.502;13.488;2023-12-20T11:38:13;7.70;;;4.20;;
1376;SDS011;682;52.502;13.488;2023-12-20T11:40:41;6.72;;;3.08;;
1376;SDS011;682;52.502;13.488;2023-12-20T11:43:08;5.93;;;3.80;;
1376;SDS011;682;52.502;13.488;2023-12-20T11:45:37;5.53;;;2.90;;
1376;SDS011;682;52.502;13.488;2023-12-20T11:48:04;11.70;;;4.38;;
1376;SDS011;682;52.502;13.488;2023-12-20T11:50:35;5.85;;;2.83;;
1376;SDS011;682;52.502;13.488;2023-12-20T11:53:06;9.77;;;3.80;;
1376;SDS011;682;52.502;13.488;2023-12-20T11:55:33;8.27;;;4.75;;
1376;SDS011;682;52.502;13.488;2023-12-20T11:58:01;6.75;;;3.35;;
1376;SDS011;682;52.502;13.488;2023-12-20T12:00:28;5.72;;;3.30;;
1376;SDS011;682;52.502;13.488;2023-12-20T12:02:56;8.48;;;3.50;;
1376;SDS011;682;52.502;13.488;2023-12-20T12:05:23;8.57;;;3.33;;
1376;SDS011;682;52.502;13.488;2023-12-20T12:07:52;6.68;;;3.78;;
1376;SDS011;682;52.502;13.488;2023-12-20T12:10:19;6.90;;;3.60;;
1376;SDS011;682;52.502;13.488;2023-12-20T12:12:47;8.37;;;3.70;;
1376;SDS011;682;52.502;13.488;2023-12-20T12:15:14;7.13;;;3.00;;
1376;SDS011;682;52.502;13.488;2023-12-20T12:17:41;7.47;;;3.10;;
1376;SDS011;682;52.502;13.488;2023-12-20T12:20:08;6.57;;;4.20;;
1376;SDS011;682;52.502;13.488;2023-12-20T12:22:36;6.60;;;3.10;;
1376;SDS011;682;52.502;13.488;2023-12-20T12:25:12;7.23;;;2.90;;
1376;SDS011;682;52.502;13.488;2023-12-20T12:27:40;6.53;;;3.35;;
1376;SDS011;682;52.502;13.488;2023-12-20T12:30:07;4.60;;;2.50;;
1376;SDS011;682;52.502;13.488;2023-12-20T12:32:38;6.50;;;3.10;;
1376;SDS011;682;52.502;13.488;2023-12-20T12:35:05;7.77;;;3.50;;
1376;SDS011;682;52.502;13.488;2023-12-20T12:37:34;5.43;;;3.10;;
1376;SDS011;682;52.502;13.488;2023-12-20T12:40:01;7.55;;;3.45;;
1376;SDS011;682;52.502;13.488;2023-12-20T12:42:32;4.50;;;3.50;;
1376;SDS011;682;52.502;13.488;2023-12-20T12:44:59;6.85;;;3.25;;
1376;SDS011;682;52.502;13.488;2023-12-20T12:47:26;7.63;;;3.05;;
1376;SDS011;682;52.502;13.488;2023-12-20T12:49:53;6.45;;;3.53;;
1376;SDS011;682;52.502;13.488;2023-12-20T12:52:20;5.35;;;3.05;;
1376;SDS011;682;52.502;13.488;2023-12-20T12:54:47;7.53;;;3.10;;
1376;SDS011;682;52.502;13.488;2023-12-20T12:57:14;9.02;;;4.35;;
1376;SDS011;682;52.502;13.488;2023-12-20T12:59:43;7.53;;;4.00;;
1376;SDS011;682;52.502;13.488;2023-12-20T13:02:11;9.20;;;3.65;;
1376;SDS011;682;52.502;13.488;2023-12-20T13:04:39;5.72;;;3.30;;
1376;SDS011;682;52.502;13.488;2023-12-20T13:07:06;6.93;;;3.10;;
1376;SDS011;682;52.502;13.488;2023-12-20T13:09:35;5.05;;;3.13;;
1376;SDS011;682;52.502;13.488;2023-12-20T13:12:03;6.60;;;3.55;;
1376;SDS011;682;52.502;13.488;2023-12-20T13:14:31;6.40;;;3.97;;
1376;SDS011;682;52.502;13.488;2023-12-20T13:17:01;11.18;;;3.58;;
1376;SDS011;682;52.502;13.488;2023-12-20T13:19:28;6.25;;;3.28;;
1376;SDS011;682;52.502;13.488;2023-12-20T13:21:55;7.03;;;3.85;;
1376;SDS011;682;52.502;13.488;2023-12-20T13:24:23;7.90;;;3.03;;
1376;SDS011;682;52.502;13.488;2023-12-20T13:26:50;5.78;;;4.20;;
1376;SDS011;682;52.502;13.488;2023-12-20T13:29:17;8.38;;;4.35;;
1376;SDS011;682;52.502;13.488;2023-12-20T13:31:44;3.70;;;2.53;;
1376;SDS011;682;52.502;13.488;2023-12-20T13:34:12;1.90;;;1.70;;
1376;SDS011;682;52.502;13.488;2023-12-20T13:36:40;2.67;;;1.88;;
1376;SDS011;682;52.502;13.488;2023-12-20T13:39:10;5.00;;;2.10;;
1376;SDS011;682;52.502;13.488;2023-12-20T13:41:37;4.45;;;1.88;;
1376;SDS011;682;52.502;13.488;2023-12-20T13:44:04;2.40;;;1.50;;
1376;SDS011;682;52.502;13.488;2023-12-20T13:46:31;5.57;;;1.85;;
1376;SDS011;682;52.502;13.488;2023-12-20T13:48:58;3.20;;;2.28;;
1376;SDS011;682;52.502;13.488;2023-12-20T13:51:28;1.50;;;1.20;;
1376;SDS011;682;52.502;13.488;2023-12-20T13:53:55;1.90;;;1.27;;
1376;SDS011;682;52.502;13.488;2023-12-20T13:56:22;1.67;;;1.50;;
1376;SDS011;682;52.502;13.488;2023-12-20T13:58:49;2.05;;;1.65;;
1376;SDS011;682;52.502;13.488;2023-12-20T14:01:16;2.45;;;1.65;;
1376;SDS011;682;52.502;13.488;2023-12-20T14:03:43;4.75;;;2.75;;
1376;SDS011;682;52.502;13.488;2023-12-20T14:06:10;3.35;;;1.80;;
1376;SDS011;682;52.502;13.488;2023-12-20T14:08:40;2.33;;;2.05;;
1376;SDS011;682;52.502;13.488;2023-12-20T14:11:07;2.80;;;1.90;;
1376;SDS011;682;52.502;13.488;2023-12-20T14:13:35;2.65;;;1.90;;
1376;SDS011;682;52.502;13.488;2023-12-20T14:16:02;3.25;;;1.90;;
1376;SDS011;682;52.502;13.488;2023-12-20T14:18:33;2.90;;;1.98;;
1376;SDS011;682;52.502;13.488;2023-12-20T14:20:59;3.63;;;2.50;;
1376;SDS011;682;52.502;13.488;2023-12-20T14:23:26;4.07;;;2.03;;
1376;SDS011;682;52.502;13.488;2023-12-20T14:25:56;2.50;;;1.95;;
1376;SDS011;682;52.502;13.488;2023-12-20T14:28:23;2.88;;;1.73;;
1376;SDS011;682;52.502;13.488;2023-12-20T14:30:50;4.72;;;1.63;;
1376;SDS011;682;52.502;13.488;2023-12-20T14:33:17;3.22;;;1.70;;
1376;SDS011;682;52.502;13.488;2023-12-20T14:35:46;1.52;;;1.10;;
1376;SDS011;682;52.502;13.488;2023-12-20T14:38:13;1.30;;;1.20;;
1376;SDS011;682;52.502;13.488;2023-12-20T14:40:40;2.13;;;1.52;;
1376;SDS011;682;52.502;13.488;2023-12-20T14:43:08;2.90;;;1.50;;
1376;SDS011;682;52.502;13.488;2023-12-20T14:45:35;2.58;;;1.35;;
1376;SDS011;682;52.502;13.488;2023-12-20T14:48:06;3.38;;;1.45;;
1376;SDS011;682;52.502;13.488;2023-12-20T14:50:33;3.53;;;2.33;;
1376;SDS011;682;52.502;13.488;2023-12-20T14:53:01;2.10;;;1.27;;
1376;SDS011;682;52.502;13.488;2023-12-20T14:55:28;3.90;;;1.20;;
1376;SDS011;682;52.502;13.488;2023-12-20T14:57:55;2.58;;;1.17;;
1376;SDS011;682;52.502;13.488;2023-12-20T15:00:24;3.22;;;1.85;;
1376;SDS011;682;52.502;13.488;2023-12-20T15:02:51;4.13;;;2.13;;
1376;SDS011;682;52.502;13.488;2023-12-20T15:05:19;3.63;;;1.80;;
1376;SDS011;682;52.502;13.488;2023-12-20T15:07:46;3.20;;;1.90;;
1376;SDS011;682;52.502;13.488;2023-12-20T15:10:13;3.35;;;1.83;;
1376;SDS011;682;52.502;13.488;2023-12-20T15:12:42;2.55;;;1.55;;
1376;SDS011;682;52.502;13.488;2023-12-20T15:15:10;3.95;;;1.80;;
1376;SDS011;682;52.502;13.488;2023-12-20T15:17:38;2.65;;;2.15;;
1376;SDS011;682;52.502;13.488;2023-12-20T15:20:05;1.88;;;1.48;;
1376;SDS011;682;52.502;13.488;2023-12-20T15:22:35;3.75;;;2.10;;
1376;SDS011;682;52.502;13.488;2023-12-20T15:25:03;2.95;;;1.77;;
1376;SDS011;682;52.502;13.488;2023-12-20T15:27:31;2.78;;;1.65;;
1376;SDS011;682;52.502;13.488;2023-12-20T15:30:00;3.40;;;2.28;;
1376;SDS011;682;52.502;13.488;2023-12-20T15:32:27;3.55;;;2.22;;
1376;SDS011;682;52.502;13.488;2023-12-20T15:34:56;3.33;;;2.10;;
1376;SDS011;682;52.502;13.488;2023-12-20T15:37:23;4.15;;;1.98;;
1376;SDS011;682;52.502;13.488;2023-12-20T15:39:51;5.10;;;2.33;;
1376;SDS011;682;52.502;13.488;2023-12-20T15:42:18;5.13;;;2.17;;
1376;SDS011;682;52.502;13.488;2023-12-20T15:44:45;3.08;;;1.70;;
1376;SDS011;682;52.502;13.488;2023-12-20T15:47:12;1.90;;;1.50;;